sensor_id;sensor_type;location;lat;lon;timestamp;pressure;altitude;pressure_sealevel;temperature;humidity
73429;BME280;61643;49.564;17.412;2023-09-19T00:01:19;97431.75;;;19.98;100.00
73429;BME280;61643;49.564;17.412;2023-09-19T00:03:46;97440.53;;;20.04;100.00
73429;BME280;61643;49.564;17.412;2023-09-19T00:06:12;97440.53;;;20.04;100.00
73429;BME280;61643;49.564;17.412;2023-09-19T00:08:41;97439.75;;;20.03;100.00
73429;BME280;61643;49.564;17.412;2023-09-19T00:11:10;97441.53;;;19.99;100.00
73429;BME280;61643;49.564;17.412;2023-09-19T00:13:36;97439.94;;;19.98;100.00
73429;BME280;61643;49.564;17.412;2023-09-19T00:16:11;97440.88;;;20.02;100.00
73429;BME280;61643;49.564;17.412;2023-09-19T00:18:38;97433.22;;;19.96;100.00
73429;BME280;61643;49.564;17.412;2023-09-19T00:21:04;97438.81;;;19.99;100.00
73429;BME280;61643;49.564;17.412;2023-09-19T00:23:30;97433.22;;;19.96;100.00
73429;BME280;61643;49.564;17.412;2023-09-19T00:26:00;97440.25;;;19.97;100.00
73429;BME280;61643;49.564;17.412;2023-09-19T00:28:27;97448.81;;;19.95;100.00
73429;BME280;61643;49.564;17.412;2023-09-19T00:30:53;97476.56;;;19.97;100.00
73429;BME280;61643;49.564;17.412;2023-09-19T00:33:21;97475.19;;;19.91;100.00
73429;BME280;61643;49.564;17.412;2023-09-19T00:38:13;97475.88;;;19.88;100.00
73429;BME280;61643;49.564;17.412;2023-09-19T00:40:46;97475.75;;;19.85;100.00
73429;BME280;61643;49.564;17.412;2023-09-19T00:43:12;97474.63;;;19.86;100.00
73429;BME280;61643;49.564;17.412;2023-09-19T00:45:39;97475.75;;;19.85;100.00
73429;BME280;61643;49.564;17.412;2023-09-19T00:48:08;97469.81;;;19.83;100.00
73429;BME280;61643;49.564;17.412;2023-09-19T00:50:35;97468.53;;;19.80;100.00
73429;BME280;61643;49.564;17.412;2023-09-19T00:53:02;97466.81;;;19.76;100.00
73429;BME280;61643;49.564;17.412;2023-09-19T00:55:39;97453.97;;;19.76;100.00
73429;BME280;61643;49.564;17.412;2023-09-19T00:58:06;97467.47;;;19.73;100.00
73429;BME280;61643;49.564;17.412;2023-09-19T01:00:33;97464.88;;;19.76;100.00
73429;BME280;61643;49.564;17.412;2023-09-19T01:03:00;97464.06;;;19.76;100.00
73429;BME280;61643;49.564;17.412;2023-09-19T01:05:29;97467.59;;;19.76;100.00
73429;BME280;61643;49.564;17.412;2023-09-19T01:07:55;97452.56;;;19.70;100.00
73429;BME280;61643;49.564;17.412;2023-09-19T01:10:22;97470.22;;;19.73;100.00
73429;BME280;61643;49.564;17.412;2023-09-19T01:21:05;97464.16;;;19.67;100.00
73429;BME280;61643;49.564;17.412;2023-09-19T01:23:39;97464.50;;;19.65;100.00
73429;BME280;61643;49.564;17.412;2023-09-19T01:26:36;97462.88;;;19.64;100.00
73429;BME280;61643;49.564;17.412;2023-09-19T01:32:18;97461.97;;;19.60;100.00
73429;BME280;61643;49.564;17.412;2023-09-19T01:37:20;97477.03;;;19.46;100.00
73429;BME280;61643;49.564;17.412;2023-09-19T01:40:02;97474.28;;;19.46;100.00
73429;BME280;61643;49.564;17.412;2023-09-19T01:42:49;97466.75;;;19.43;100.00
73429;BME280;61643;49.564;17.412;2023-09-19T01:47:55;97463.38;;;19.37;100.00
73429;BME280;61643;49.564;17.412;2023-09-19T01:50:34;97465.44;;;19.40;100.00
73429;BME280;61643;49.564;17.412;2023-09-19T01:53:27;97459.19;;;19.40;100.00
73429;BME280;61643;49.564;17.412;2023-09-19T01:55:57;97453.28;;;19.38;100.00
73429;BME280;61643;49.564;17.412;2023-09-19T01:58:46;97456.00;;;19.38;100.00
73429;BME280;61643;49.564;17.412;2023-09-19T02:01:19;97449.13;;;19.32;100.00
73429;BME280;61643;49.564;17.412;2023-09-19T02:03:47;97446.75;;;19.30;100.00
73429;BME280;61643;49.564;17.412;2023-09-19T02:06:18;97447.06;;;19.29;100.00
73429;BME280;61643;49.564;17.412;2023-09-19T02:08:45;97451.09;;;19.31;100.00
73429;BME280;61643;49.564;17.412;2023-09-19T02:11:11;97454.94;;;19.30;100.00
73429;BME280;61643;49.564;17.412;2023-09-19T02:13:39;97449.34;;;19.27;100.00
73429;BME280;61643;49.564;17.412;2023-09-19T02:16:06;97468.63;;;19.22;100.00
73429;BME280;61643;49.564;17.412;2023-09-19T02:18:33;97466.50;;;19.27;100.00
73429;BME280;61643;49.564;17.412;2023-09-19T02:21:02;97462.50;;;19.25;100.00
73429;BME280;61643;49.564;17.412;2023-09-19T02:23:30;97459.69;;;19.12;100.00
73429;BME280;61643;49.564;17.412;2023-09-19T02:25:59;97461.94;;;19.10;100.00
73429;BME280;61643;49.564;17.412;2023-09-19T02:28:29;97465.69;;;19.06;100.00
73429;BME280;61643;49.564;17.412;2023-09-19T02:30:58;97468.06;;;19.07;100.00
73429;BME280;61643;49.564;17.412;2023-09-19T02:33:24;97466.16;;;19.08;100.00
73429;BME280;61643;49.564;17.412;2023-09-19T02:35:55;97476.47;;;19.02;100.00
73429;BME280;61643;49.564;17.412;2023-09-19T02:38:23;97470.19;;;19.02;100.00
73429;BME280;61643;49.564;17.412;2023-09-19T02:40:54;97473.25;;;19.00;100.00
73429;BME280;61643;49.564;17.412;2023-09-19T02:43:21;97473.91;;;18.97;100.00
73429;BME280;61643;49.564;17.412;2023-09-19T02:45:48;97475.38;;;18.95;100.00
73429;BME280;61643;49.564;17.412;2023-09-19T02:48:19;97476.50;;;18.94;100.00
73429;BME280;61643;49.564;17.412;2023-09-19T02:50:45;97473.75;;;18.94;100.00
73429;BME280;61643;49.564;17.412;2023-09-19T02:53:11;97480.69;;;18.91;100.00
73429;BME280;61643;49.564;17.412;2023-09-19T02:55:39;97483.56;;;18.86;100.00
73429;BME280;61643;49.564;17.412;2023-09-19T02:58:06;97481.00;;;18.90;100.00
73429;BME280;61643;49.564;17.412;2023-09-19T03:00:40;97487.44;;;18.85;100.00
73429;BME280;61643;49.564;17.412;2023-09-19T03:03:07;97490.63;;;18.87;100.00
73429;BME280;61643;49.564;17.412;2023-09-19T03:05:34;97495.81;;;18.80;100.00
73429;BME280;61643;49.564;17.412;2023-09-19T03:08:00;97496.47;;;18.77;100.00
73429;BME280;61643;49.564;17.412;2023-09-19T03:10:27;97491.78;;;18.78;100.00
73429;BME280;61643;49.564;17.412;2023-09-19T03:12:53;97490.22;;;18.77;100.00
73429;BME280;61643;49.564;17.412;2023-09-19T03:15:19;97500.47;;;18.71;100.00
73429;BME280;61643;49.564;17.412;2023-09-19T03:17:47;97506.75;;;18.63;100.00
73429;BME280;61643;49.564;17.412;2023-09-19T03:20:14;97510.94;;;18.60;100.00
73429;BME280;61643;49.564;17.412;2023-09-19T03:22:46;97512.09;;;18.51;100.00
73429;BME280;61643;49.564;17.412;2023-09-19T03:25:12;97517.69;;;18.46;100.00
73429;BME280;61643;49.564;17.412;2023-09-19T03:27:39;97515.16;;;18.41;100.00
73429;BME280;61643;49.564;17.412;2023-09-19T03:30:05;97528.28;;;18.39;100.00
73429;BME280;61643;49.564;17.412;2023-09-19T03:32:35;97529.72;;;18.28;100.00
73429;BME280;61643;49.564;17.412;2023-09-19T03:35:02;97533.59;;;18.27;100.00
73429;BME280;61643;49.564;17.412;2023-09-19T03:37:31;97534.88;;;18.20;100.00
73429;BME280;61643;49.564;17.412;2023-09-19T03:39:58;97538.09;;;18.14;100.00
73429;BME280;61643;49.564;17.412;2023-09-19T03:42:24;97541.44;;;18.02;100.00
73429;BME280;61643;49.564;17.412;2023-09-19T03:44:52;97550.09;;;17.87;100.00
73429;BME280;61643;49.564;17.412;2023-09-19T03:47:18;97558.44;;;17.65;100.00
73429;BME280;61643;49.564;17.412;2023-09-19T03:49:47;97563.16;;;17.42;100.00
73429;BME280;61643;49.564;17.412;2023-09-19T03:52:13;97562.59;;;17.23;100.00
73429;BME280;61643;49.564;17.412;2023-09-19T03:54:41;97563.72;;;17.22;100.00
73429;BME280;61643;49.564;17.412;2023-09-19T03:57:07;97564.63;;;17.09;100.00
73429;BME280;61643;49.564;17.412;2023-09-19T03:59:33;97570.34;;;16.99;100.00
73429;BME280;61643;49.564;17.412;2023-09-19T04:02:01;97562.03;;;16.95;100.00
73429;BME280;61643;49.564;17.412;2023-09-19T04:04:27;97561.03;;;16.91;100.00
73429;BME280;61643;49.564;17.412;2023-09-19T04:06:55;97554.69;;;16.96;100.00
73429;BME280;61643;49.564;17.412;2023-09-19T04:09:21;97563.94;;;16.95;100.00
73429;BME280;61643;49.564;17.412;2023-09-19T04:11:47;97561.81;;;16.83;100.00
73429;BME280;61643;49.564;17.412;2023-09-19T04:14:15;97566.13;;;16.84;100.00
73429;BME280;61643;49.564;17.412;2023-09-19T04:16:41;97563.72;;;16.83;100.00
73429;BME280;61643;49.564;17.412;2023-09-19T04:19:07;97570.72;;;16.75;100.00
73429;BME280;61643;49.564;17.412;2023-09-19T04:21:33;97576.31;;;16.79;100.00
73429;BME280;61643;49.564;17.412;2023-09-19T04:24:00;97565.59;;;16.73;100.00
73429;BME280;61643;49.564;17.412;2023-09-19T04:26:26;97578.25;;;16.78;100.00
73429;BME280;61643;49.564;17.412;2023-09-19T04:28:52;97573.19;;;16.85;100.00
73429;BME280;61643;49.564;17.412;2023-09-19T04:31:19;97583.25;;;16.85;100.00
73429;BME280;61643;49.564;17.412;2023-09-19T04:33:47;97583.06;;;16.81;100.00
73429;BME280;61643;49.564;17.412;2023-09-19T04:36:13;97587.38;;;16.82;100.00
73429;BME280;61643;49.564;17.412;2023-09-19T04:38:39;97585.34;;;16.88;100.00
73429;BME280;61643;49.564;17.412;2023-09-19T04:41:06;97588.69;;;16.85;100.00
73429;BME280;61643;49.564;17.412;2023-09-19T04:43:32;97589.50;;;16.85;100.00
73429;BME280;61643;49.564;17.412;2023-09-19T04:45:57;97579.59;;;16.89;100.00
73429;BME280;61643;49.564;17.412;2023-09-19T04:48:26;97583.91;;;16.90;100.00
73429;BME280;61643;49.564;17.412;2023-09-19T04:50:52;97587.94;;;16.93;100.00
73429;BME280;61643;49.564;17.412;2023-09-19T04:53:18;97599.47;;;16.98;100.00
73429;BME280;61643;49.564;17.412;2023-09-19T04:55:50;97605.38;;;17.00;100.00
73429;BME280;61643;49.564;17.412;2023-09-19T04:58:18;97604.59;;;17.00;100.00
73429;BME280;61643;49.564;17.412;2023-09-19T05:00:45;97607.13;;;16.96;100.00
73429;BME280;61643;49.564;17.412;2023-09-19T05:03:11;97616.41;;;17.04;100.00
73429;BME280;61643;49.564;17.412;2023-09-19T05:05:37;97629.25;;;17.03;100.00
73429;BME280;61643;49.564;17.412;2023-09-19T05:08:04;97628.59;;;17.06;100.00
73429;BME280;61643;49.564;17.412;2023-09-19T05:10:32;97630.81;;;17.04;100.00
73429;BME280;61643;49.564;17.412;2023-09-19T05:12:58;97635.28;;;17.00;100.00
73429;BME280;61643;49.564;17.412;2023-09-19T05:15:24;97636.41;;;16.99;100.00
73429;BME280;61643;49.564;17.412;2023-09-19T05:17:51;97632.25;;;17.02;100.00
73429;BME280;61643;49.564;17.412;2023-09-19T05:20:17;97641.22;;;17.02;100.00
73429;BME280;61643;49.564;17.412;2023-09-19T05:23:04;97643.94;;;17.02;100.00
73429;BME280;61643;49.564;17.412;2023-09-19T05:25:34;97642.31;;;17.01;100.00
73429;BME280;61643;49.564;17.412;2023-09-19T05:28:03;97641.53;;;17.01;100.00
73429;BME280;61643;49.564;17.412;2023-09-19T05:30:32;97635.59;;;16.99;100.00
73429;BME280;61643;49.564;17.412;2023-09-19T05:32:58;97635.91;;;16.97;100.00
73429;BME280;61643;49.564;17.412;2023-09-19T05:35:25;97637.53;;;16.98;100.00
73429;BME280;61643;49.564;17.412;2023-09-19T05:37:52;97634.91;;;16.93;100.00
73429;BME280;61643;49.564;17.412;2023-09-19T05:40:18;97634.63;;;16.95;100.00
73429;BME280;61643;49.564;17.412;2023-09-19T05:42:45;97638.16;;;16.95;100.00
73429;BME280;61643;49.564;17.412;2023-09-19T05:45:12;97636.53;;;16.94;100.00
73429;BME280;61643;49.564;17.412;2023-09-19T05:47:41;97643.69;;;16.90;100.00
73429;BME280;61643;49.564;17.412;2023-09-19T05:50:11;97641.97;;;16.94;100.00
73429;BME280;61643;49.564;17.412;2023-09-19T05:52:38;97638.09;;;16.87;100.00
73429;BME280;61643;49.564;17.412;2023-09-19T05:55:05;97636.81;;;16.84;100.00
73429;BME280;61643;49.564;17.412;2023-09-19T05:57:35;97642.59;;;16.91;100.00
73429;BME280;61643;49.564;17.412;2023-09-19T06:00:01;97647.56;;;16.89;100.00
73429;BME280;61643;49.564;17.412;2023-09-19T06:02:27;97645.59;;;16.81;100.00
73429;BME280;61643;49.564;17.412;2023-09-19T06:04:56;97661.75;;;16.86;100.00
73429;BME280;61643;49.564;17.412;2023-09-19T06:07:22;97664.28;;;16.83;100.00
73429;BME280;61643;49.564;17.412;2023-09-19T06:09:52;97667.19;;;16.86;100.00
73429;BME280;61643;49.564;17.412;2023-09-19T06:12:19;97670.69;;;16.87;100.00
73429;BME280;61643;49.564;17.412;2023-09-19T06:14:45;97677.69;;;16.79;100.00
73429;BME280;61643;49.564;17.412;2023-09-19T06:17:11;97685.22;;;16.82;100.00
73429;BME280;61643;49.564;17.412;2023-09-19T06:19:37;97691.66;;;16.86;100.00
73429;BME280;61643;49.564;17.412;2023-09-19T06:22:03;97686.78;;;16.75;100.00
73429;BME280;61643;49.564;17.412;2023-09-19T06:24:29;97699.31;;;16.84;100.00
73429;BME280;61643;49.564;17.412;2023-09-19T06:26:56;97705.75;;;16.88;100.00
73429;BME280;61643;49.564;17.412;2023-09-19T06:29:22;97706.19;;;16.82;100.00
73429;BME280;61643;49.564;17.412;2023-09-19T06:31:50;97702.22;;;16.88;100.00
73429;BME280;61643;49.564;17.412;2023-09-19T06:34:16;97696.91;;;16.83;100.00
73429;BME280;61643;49.564;17.412;2023-09-19T06:36:44;97703.75;;;16.80;100.00
73429;BME280;61643;49.564;17.412;2023-09-19T06:39:11;97698.81;;;16.82;100.00
73429;BME280;61643;49.564;17.412;2023-09-19T06:41:37;97701.72;;;16.86;100.00
73429;BME280;61643;49.564;17.412;2023-09-19T06:44:05;97703.66;;;16.85;100.00
73429;BME280;61643;49.564;17.412;2023-09-19T06:46:31;97714.81;;;16.84;100.00
73429;BME280;61643;49.564;17.412;2023-09-19T06:49:01;97715.44;;;16.81;100.00
73429;BME280;61643;49.564;17.412;2023-09-19T06:51:32;97714.16;;;16.78;100.00
73429;BME280;61643;49.564;17.412;2023-09-19T06:54:01;97710.38;;;16.88;100.00
73429;BME280;61643;49.564;17.412;2023-09-19T06:56:27;97719.44;;;16.83;100.00
73429;BME280;61643;49.564;17.412;2023-09-19T06:58:53;97723.44;;;16.86;100.00
73429;BME280;61643;49.564;17.412;2023-09-19T07:01:19;97732.41;;;16.86;100.00
73429;BME280;61643;49.564;17.412;2023-09-19T07:03:45;97728.72;;;16.82;100.00
73429;BME280;61643;49.564;17.412;2023-09-19T07:06:11;97735.09;;;16.78;100.00
73429;BME280;61643;49.564;17.412;2023-09-19T07:08:37;97724.94;;;16.69;100.00
73429;BME280;61643;49.564;17.412;2023-09-19T07:11:04;97731.06;;;16.75;100.00
73429;BME280;61643;49.564;17.412;2023-09-19T07:13:31;97744.72;;;16.84;100.00
73429;BME280;61643;49.564;17.412;2023-09-19T07:15:58;97744.81;;;16.79;100.00
73429;BME280;61643;49.564;17.412;2023-09-19T07:18:25;97747.91;;;16.86;100.00
73429;BME280;61643;49.564;17.412;2023-09-19T07:20:56;97744.91;;;16.87;100.00
73429;BME280;61643;49.564;17.412;2023-09-19T07:23:27;97742.06;;;16.92;100.00
73429;BME280;61643;49.564;17.412;2023-09-19T07:25:56;97748.91;;;16.90;100.00
73429;BME280;61643;49.564;17.412;2023-09-19T07:28:22;97756.34;;;16.98;100.00
73429;BME280;61643;49.564;17.412;2023-09-19T07:30:48;97762.69;;;16.93;100.00
73429;BME280;61643;49.564;17.412;2023-09-19T07:33:14;97764.19;;;16.99;100.00
73429;BME280;61643;49.564;17.412;2023-09-19T07:35:40;97764.50;;;16.98;100.00
73429;BME280;61643;49.564;17.412;2023-09-19T07:38:11;97774.25;;;16.99;100.00
73429;BME280;61643;49.564;17.412;2023-09-19T07:40:37;97768.00;;;16.98;100.00
73429;BME280;61643;49.564;17.412;2023-09-19T07:43:03;97775.06;;;16.99;100.00
73429;BME280;61643;49.564;17.412;2023-09-19T07:45:33;97773.81;;;17.05;100.00
73429;BME280;61643;49.564;17.412;2023-09-19T07:47:59;97786.69;;;17.13;100.00
73429;BME280;61643;49.564;17.412;2023-09-19T07:50:30;97783.97;;;17.13;100.00
73429;BME280;61643;49.564;17.412;2023-09-19T07:52:55;97786.88;;;17.17;100.00
73429;BME280;61643;49.564;17.412;2023-09-19T07:55:22;97788.66;;;17.21;100.00
73429;BME280;61643;49.564;17.412;2023-09-19T07:57:54;97784.19;;;17.26;100.00
73429;BME280;61643;49.564;17.412;2023-09-19T08:00:20;97787.34;;;17.19;100.00
73429;BME280;61643;49.564;17.412;2023-09-19T08:02:46;97786.25;;;17.20;100.00
73429;BME280;61643;49.564;17.412;2023-09-19T08:05:13;97788.97;;;17.20;100.00
73429;BME280;61643;49.564;17.412;2023-09-19T08:07:43;97787.06;;;17.20;100.00
73429;BME280;61643;49.564;17.412;2023-09-19T08:10:11;97781.72;;;17.15;100.00
73429;BME280;61643;49.564;17.412;2023-09-19T08:12:42;97785.75;;;17.18;100.00
73429;BME280;61643;49.564;17.412;2023-09-19T08:15:13;97786.06;;;17.16;100.00
73429;BME280;61643;49.564;17.412;2023-09-19T08:17:40;97782.69;;;17.11;100.00
73429;BME280;61643;49.564;17.412;2023-09-19T08:20:07;97780.25;;;17.09;100.00
73429;BME280;61643;49.564;17.412;2023-09-19T08:22:33;97777.53;;;17.09;100.00
73429;BME280;61643;49.564;17.412;2023-09-19T08:25:00;97770.81;;;17.07;100.00
73429;BME280;61643;49.564;17.412;2023-09-19T08:27:30;97785.19;;;17.07;100.00
73429;BME280;61643;49.564;17.412;2023-09-19T08:29:56;97785.69;;;17.09;100.00
73429;BME280;61643;49.564;17.412;2023-09-19T08:32:22;97784.06;;;17.08;100.00
73429;BME280;61643;49.564;17.412;2023-09-19T08:34:50;97790.69;;;17.16;100.00
73429;BME280;61643;49.564;17.412;2023-09-19T08:37:16;97787.13;;;17.07;100.00
73429;BME280;61643;49.564;17.412;2023-09-19T08:39:44;97796.56;;;17.09;100.00
73429;BME280;61643;49.564;17.412;2023-09-19T08:42:10;97797.25;;;17.15;100.00
73429;BME280;61643;49.564;17.412;2023-09-19T08:44:38;97793.78;;;17.23;100.00
73429;BME280;61643;49.564;17.412;2023-09-19T08:47:11;97810.78;;;17.29;100.00
73429;BME280;61643;49.564;17.412;2023-09-19T08:52:32;97806.25;;;17.46;100.00
73429;BME280;61643;49.564;17.412;2023-09-19T08:55:03;97801.41;;;17.57;100.00
73429;BME280;61643;49.564;17.412;2023-09-19T08:57:36;97805.47;;;17.68;100.00
73429;BME280;61643;49.564;17.412;2023-09-19T09:00:08;97806.97;;;17.83;100.00
73429;BME280;61643;49.564;17.412;2023-09-19T09:02:38;97803.97;;;17.93;100.00
73429;BME280;61643;49.564;17.412;2023-09-19T09:05:09;97801.06;;;17.89;100.00
73429;BME280;61643;49.564;17.412;2023-09-19T09:07:37;97803.06;;;18.06;100.00
73429;BME280;61643;49.564;17.412;2023-09-19T09:10:03;97802.41;;;18.09;100.00
73429;BME280;61643;49.564;17.412;2023-09-19T09:12:30;97815.28;;;18.17;100.00
73429;BME280;61643;49.564;17.412;2023-09-19T09:14:56;97811.09;;;18.11;100.00
73429;BME280;61643;49.564;17.412;2023-09-19T09:17:23;97810.75;;;18.04;100.00
73429;BME280;61643;49.564;17.412;2023-09-19T09:19:53;97808.84;;;18.04;100.00
73429;BME280;61643;49.564;17.412;2023-09-19T09:22:19;97814.22;;;17.96;100.00
73429;BME280;61643;49.564;17.412;2023-09-19T09:24:53;97816.03;;;18.09;100.00
73429;BME280;61643;49.564;17.412;2023-09-19T09:27:20;97820.03;;;18.03;100.00
73429;BME280;61643;49.564;17.412;2023-09-19T09:29:51;97814.13;;;18.09;100.00
73429;BME280;61643;49.564;17.412;2023-09-19T09:32:18;97817.97;;;18.08;100.00
73429;BME280;61643;49.564;17.412;2023-09-19T09:34:44;97819.56;;;18.09;100.00
73429;BME280;61643;49.564;17.412;2023-09-19T09:37:17;97822.56;;;17.99;100.00
73429;BME280;61643;49.564;17.412;2023-09-19T09:39:58;97835.09;;;18.09;100.00
73429;BME280;61643;49.564;17.412;2023-09-19T09:42:40;97829.81;;;18.04;100.00
73429;BME280;61643;49.564;17.412;2023-09-19T09:45:19;97836.09;;;18.13;100.00
73429;BME280;61643;49.564;17.412;2023-09-19T09:47:54;97838.34;;;18.11;100.00
73429;BME280;61643;49.564;17.412;2023-09-19T09:50:31;97840.59;;;18.17;100.00
73429;BME280;61643;49.564;17.412;2023-09-19T09:53:25;97848.41;;;18.10;100.00
73429;BME280;61643;49.564;17.412;2023-09-19T09:56:05;97856.88;;;18.00;100.00
73429;BME280;61643;49.564;17.412;2023-09-19T09:58:38;97853.81;;;18.02;100.00
73429;BME280;61643;49.564;17.412;2023-09-19T10:01:14;97855.56;;;17.98;100.00
73429;BME280;61643;49.564;17.412;2023-09-19T10:03:42;97871.72;;;17.94;100.00
73429;BME280;61643;49.564;17.412;2023-09-19T10:06:17;97871.25;;;17.92;100.00
73429;BME280;61643;49.564;17.412;2023-09-19T10:11:48;97886.81;;;18.00;100.00
73429;BME280;61643;49.564;17.412;2023-09-19T10:14:25;97877.97;;;17.95;100.00
73429;BME280;61643;49.564;17.412;2023-09-19T10:16:58;97886.75;;;17.92;100.00
73429;BME280;61643;49.564;17.412;2023-09-19T10:19:33;97889.31;;;17.88;100.00
73429;BME280;61643;49.564;17.412;2023-09-19T10:22:04;97888.84;;;17.95;100.00
73429;BME280;61643;49.564;17.412;2023-09-19T10:24:33;97891.75;;;17.98;100.00
73429;BME280;61643;49.564;17.412;2023-09-19T10:27:00;97889.81;;;17.90;100.00
73429;BME280;61643;49.564;17.412;2023-09-19T10:29:27;97891.28;;;17.96;100.00
73429;BME280;61643;49.564;17.412;2023-09-19T10:31:58;97887.63;;;18.01;100.00
73429;BME280;61643;49.564;17.412;2023-09-19T10:34:25;97895.19;;;18.12;100.00
73429;BME280;61643;49.564;17.412;2023-09-19T10:36:52;97888.34;;;18.15;100.00
73429;BME280;61643;49.564;17.412;2023-09-19T10:39:19;97895.75;;;18.23;100.00
73429;BME280;61643;49.564;17.412;2023-09-19T10:41:56;97895.66;;;18.37;100.00
73429;BME280;61643;49.564;17.412;2023-09-19T10:44:32;97890.28;;;18.54;100.00
73429;BME280;61643;49.564;17.412;2023-09-19T10:46:58;97895.78;;;18.71;100.00
73429;BME280;61643;49.564;17.412;2023-09-19T10:49:25;97892.28;;;18.79;100.00
73429;BME280;61643;49.564;17.412;2023-09-19T10:51:57;97893.25;;;18.83;100.00
73429;BME280;61643;49.564;17.412;2023-09-19T10:54:30;97896.94;;;18.87;100.00
73429;BME280;61643;49.564;17.412;2023-09-19T10:56:58;97887.31;;;18.90;100.00
73429;BME280;61643;49.564;17.412;2023-09-19T10:59:25;97893.59;;;18.90;100.00
73429;BME280;61643;49.564;17.412;2023-09-19T11:01:53;97892.63;;;19.03;100.00
73429;BME280;61643;49.564;17.412;2023-09-19T11:07:07;97888.94;;;19.08;100.00
73429;BME280;61643;49.564;17.412;2023-09-19T11:09:52;97889.13;;;19.11;100.00
73429;BME280;61643;49.564;17.412;2023-09-19T11:14:57;97898.13;;;19.38;100.00
73429;BME280;61643;49.564;17.412;2023-09-19T11:30:36;97895.16;;;20.03;100.00
73429;BME280;61643;49.564;17.412;2023-09-19T11:33:28;97896.72;;;20.21;100.00
73429;BME280;61643;49.564;17.412;2023-09-19T11:49:17;97891.41;;;20.25;100.00
73429;BME280;61643;49.564;17.412;2023-09-19T11:51:52;97889.78;;;20.24;100.00
73429;BME280;61643;49.564;17.412;2023-09-19T11:54:18;97884.19;;;20.29;100.00
73429;BME280;61643;49.564;17.412;2023-09-19T11:56:52;97888.94;;;20.40;100.00
73429;BME280;61643;49.564;17.412;2023-09-19T11:59:27;97886.22;;;20.40;100.00
73429;BME280;61643;49.564;17.412;2023-09-19T12:02:05;97888.78;;;20.45;100.00
73429;BME280;61643;49.564;17.412;2023-09-19T12:04:43;97889.28;;;20.39;100.00
73429;BME280;61643;49.564;17.412;2023-09-19T12:07:12;97894.91;;;20.34;100.00
73429;BME280;61643;49.564;17.412;2023-09-19T12:09:43;97885.09;;;20.41;100.00
73429;BME280;61643;49.564;17.412;2023-09-19T12:12:23;97885.72;;;20.47;100.00
73429;BME280;61643;49.564;17.412;2023-09-19T12:14:50;97894.72;;;20.47;100.00
73429;BME280;61643;49.564;17.412;2023-09-19T12:17:17;97891.28;;;20.59;100.00
73429;BME280;61643;49.564;17.412;2023-09-19T12:19:52;97887.25;;;20.65;100.00
73429;BME280;61643;49.564;17.412;2023-09-19T12:22:19;97904.16;;;20.88;100.00
73429;BME280;61643;49.564;17.412;2023-09-19T12:24:47;97889.75;;;20.99;100.00
73429;BME280;61643;49.564;17.412;2023-09-19T12:27:13;97888.41;;;21.14;100.00
73429;BME280;61643;49.564;17.412;2023-09-19T12:29:44;97888.94;;;21.28;100.00
73429;BME280;61643;49.564;17.412;2023-09-19T12:32:10;97897.75;;;21.34;100.00
73429;BME280;61643;49.564;17.412;2023-09-19T12:34:37;97898.63;;;21.26;100.00
73429;BME280;61643;49.564;17.412;2023-09-19T12:37:09;97906.44;;;21.15;100.00
73429;BME280;61643;49.564;17.412;2023-09-19T12:39:45;97901.09;;;20.89;100.00
73429;BME280;61643;49.564;17.412;2023-09-19T12:42:15;97898.63;;;20.67;100.00
73429;BME280;61643;49.564;17.412;2023-09-19T12:44:42;97902.13;;;20.47;100.00
73429;BME280;61643;49.564;17.412;2023-09-19T12:47:19;97904.91;;;20.21;100.00
73429;BME280;61643;49.564;17.412;2023-09-19T12:50:11;97901.91;;;19.97;100.00
73429;BME280;61643;49.564;17.412;2023-09-19T12:52:44;97907.91;;;19.82;100.00
73429;BME280;61643;49.564;17.412;2023-09-19T12:55:24;97913.38;;;19.73;100.00
73429;BME280;61643;49.564;17.412;2023-09-19T13:00:35;97914.81;;;19.53;100.00
73429;BME280;61643;49.564;17.412;2023-09-19T13:05:51;97918.69;;;19.44;100.00
73429;BME280;61643;49.564;17.412;2023-09-19T13:08:18;97914.84;;;19.45;100.00
73429;BME280;61643;49.564;17.412;2023-09-19T13:11:06;97922.38;;;19.48;100.00
73429;BME280;61643;49.564;17.412;2023-09-19T13:13:33;97919.50;;;19.53;100.00
73429;BME280;61643;49.564;17.412;2023-09-19T13:16:02;97911.47;;;19.56;100.00
73429;BME280;61643;49.564;17.412;2023-09-19T13:18:28;97913.56;;;19.59;100.00
73429;BME280;61643;49.564;17.412;2023-09-19T13:21:12;97912.09;;;19.62;100.00
73429;BME280;61643;49.564;17.412;2023-09-19T13:23:42;97912.59;;;19.64;100.00
73429;BME280;61643;49.564;17.412;2023-09-19T13:26:12;97900.69;;;19.69;100.00
73429;BME280;61643;49.564;17.412;2023-09-19T13:28:38;97902.75;;;19.80;100.00
73429;BME280;61643;49.564;17.412;2023-09-19T13:31:05;97900.84;;;19.89;100.00
73429;BME280;61643;49.564;17.412;2023-09-19T13:33:31;97902.91;;;19.92;100.00
73429;BME280;61643;49.564;17.412;2023-09-19T13:35:57;97896.13;;;19.98;100.00
73429;BME280;61643;49.564;17.412;2023-09-19T13:38:23;97900.13;;;20.09;100.00
73429;BME280;61643;49.564;17.412;2023-09-19T13:40:49;97899.81;;;20.11;100.00
73429;BME280;61643;49.564;17.412;2023-09-19T13:43:18;97899.97;;;20.14;100.00
73429;BME280;61643;49.564;17.412;2023-09-19T13:45:44;97893.41;;;20.07;100.00
73429;BME280;61643;49.564;17.412;2023-09-19T13:48:10;97898.84;;;20.07;100.00
73429;BME280;61643;49.564;17.412;2023-09-19T13:50:38;97898.06;;;20.06;100.00
73429;BME280;61643;49.564;17.412;2023-09-19T13:53:08;97897.09;;;20.11;100.00